sensor_id;sensor_type;location;lat;lon;timestamp;pressure;altitude;pressure_sealevel;temperature;humidity
73151;BME280;61354;50.758;6.106;2023-04-01T00:01:05;97076.19;;;7.91;100.00
73151;BME280;61354;50.758;6.106;2023-04-01T00:03:31;97086.84;;;7.89;100.00
73151;BME280;61354;50.758;6.106;2023-04-01T00:05:58;97075.41;;;7.94;100.00
73151;BME280;61354;50.758;6.106;2023-04-01T00:08:25;97081.75;;;7.98;100.00
73151;BME280;61354;50.758;6.106;2023-04-01T00:10:51;97068.31;;;7.96;100.00
73151;BME280;61354;50.758;6.106;2023-04-01T00:13:18;97081.75;;;7.98;100.00
73151;BME280;61354;50.758;6.106;2023-04-01T00:15:43;97061.19;;;7.99;100.00
73151;BME280;61354;50.758;6.106;2023-04-01T00:18:09;97082.94;;;7.97;100.00
73151;BME280;61354;50.758;6.106;2023-04-01T00:20:35;97080.16;;;7.97;100.00
73151;BME280;61354;50.758;6.106;2023-04-01T00:23:01;97086.47;;;7.97;100.00
73151;BME280;61354;50.758;6.106;2023-04-01T00:25:27;97063.94;;;7.95;100.00
73151;BME280;61354;50.758;6.106;2023-04-01T00:27:52;97074.22;;;7.95;100.00
73151;BME280;61354;50.758;6.106;2023-04-01T00:30:18;97084.50;;;7.94;100.00
73151;BME280;61354;50.758;6.106;2023-04-01T00:32:44;97076.59;;;7.93;100.00
73151;BME280;61354;50.758;6.106;2023-04-01T00:35:09;97074.59;;;7.90;100.00
73151;BME280;61354;50.758;6.106;2023-04-01T00:37:36;97065.53;;;7.93;100.00
73151;BME280;61354;50.758;6.106;2023-04-01T00:40:04;97084.09;;;7.96;100.00
73151;BME280;61354;50.758;6.106;2023-04-01T00:42:30;97073.84;;;7.93;100.00
73151;BME280;61354;50.758;6.106;2023-04-01T00:44:56;97075.00;;;7.92;100.00
73151;BME280;61354;50.758;6.106;2023-04-01T00:47:24;97073.03;;;7.96;100.00
73151;BME280;61354;50.758;6.106;2023-04-01T00:49:53;97084.50;;;7.94;100.00
73151;BME280;61354;50.758;6.106;2023-04-01T00:52:23;97080.53;;;7.92;100.00
73151;BME280;61354;50.758;6.106;2023-04-01T00:54:55;97078.16;;;7.87;100.00
73151;BME280;61354;50.758;6.106;2023-04-01T00:57:34;97085.66;;;7.90;100.00
73151;BME280;61354;50.758;6.106;2023-04-01T01:00:05;97080.91;;;7.83;100.00
73151;BME280;61354;50.758;6.106;2023-04-01T01:02:33;97082.47;;;7.88;100.00
73151;BME280;61354;50.758;6.106;2023-04-01T01:04:59;97076.56;;;7.86;100.00
73151;BME280;61354;50.758;6.106;2023-04-01T01:07:38;97069.84;;;7.87;100.00
73151;BME280;61354;50.758;6.106;2023-04-01T01:10:14;97084.06;;;7.82;100.00
73151;BME280;61354;50.758;6.106;2023-04-01T01:15:30;97088.41;;;7.83;100.00
73151;BME280;61354;50.758;6.106;2023-04-01T01:18:19;97074.59;;;7.83;100.00
73151;BME280;61354;50.758;6.106;2023-04-01T01:34:01;97086.44;;;7.80;100.00
73151;BME280;61354;50.758;6.106;2023-04-01T01:36:32;97083.66;;;7.80;100.00
73151;BME280;61354;50.758;6.106;2023-04-01T01:39:04;97081.28;;;7.82;100.00
73151;BME280;61354;50.758;6.106;2023-04-01T01:41:32;97089.59;;;7.82;100.00
73151;BME280;61354;50.758;6.106;2023-04-01T01:43:59;97086.44;;;7.80;100.00
73151;BME280;61354;50.758;6.106;2023-04-01T01:46:28;97084.81;;;7.75;100.00
73151;BME280;61354;50.758;6.106;2023-04-01T01:48:57;97085.25;;;7.81;100.00
73151;BME280;61354;50.758;6.106;2023-04-01T01:51:24;97081.69;;;7.80;100.00
73151;BME280;61354;50.758;6.106;2023-04-01T01:53:51;97086.44;;;7.80;100.00
73151;BME280;61354;50.758;6.106;2023-04-01T01:56:18;97080.88;;;7.76;100.00
73151;BME280;61354;50.758;6.106;2023-04-01T01:58:50;97082.47;;;7.81;100.00
73151;BME280;61354;50.758;6.106;2023-04-01T02:01:23;97089.59;;;7.82;100.00
73151;BME280;61354;50.758;6.106;2023-04-01T02:03:50;97083.25;;;7.78;100.00
73151;BME280;61354;50.758;6.106;2023-04-01T02:06:19;97084.84;;;7.79;100.00
73151;BME280;61354;50.758;6.106;2023-04-01T02:08:53;97081.69;;;7.77;100.00
73151;BME280;61354;50.758;6.106;2023-04-01T02:11:26;97087.97;;;7.73;100.00
73151;BME280;61354;50.758;6.106;2023-04-01T02:14:03;97080.84;;;7.69;100.00
73151;BME280;61354;50.758;6.106;2023-04-01T02:16:44;97082.06;;;7.71;100.00
73151;BME280;61354;50.758;6.106;2023-04-01T02:19:12;97078.47;;;7.71;100.00
73151;BME280;61354;50.758;6.106;2023-04-01T02:21:39;97083.63;;;7.72;100.00
73151;BME280;61354;50.758;6.106;2023-04-01T02:24:11;97085.19;;;7.70;100.00
73151;BME280;61354;50.758;6.106;2023-04-01T02:26:37;97076.13;;;7.69;100.00
73151;BME280;61354;50.758;6.106;2023-04-01T02:29:04;97081.66;;;7.69;100.00
73151;BME280;61354;50.758;6.106;2023-04-01T02:31:32;97074.53;;;7.68;100.00
73151;BME280;61354;50.758;6.106;2023-04-01T02:33:58;97074.53;;;7.68;100.00
73151;BME280;61354;50.758;6.106;2023-04-01T02:36:24;97087.16;;;7.69;100.00
73151;BME280;61354;50.758;6.106;2023-04-01T02:38:50;97091.50;;;7.70;100.00
73151;BME280;61354;50.758;6.106;2023-04-01T02:41:17;97081.25;;;7.67;100.00
73151;BME280;61354;50.758;6.106;2023-04-01T02:43:43;97088.34;;;7.68;100.00
73151;BME280;61354;50.758;6.106;2023-04-01T02:46:08;97083.22;;;7.67;100.00
73151;BME280;61354;50.758;6.106;2023-04-01T02:48:34;97087.94;;;7.66;100.00
73151;BME280;61354;50.758;6.106;2023-04-01T02:51:00;97089.94;;;7.69;100.00
73151;BME280;61354;50.758;6.106;2023-04-01T02:53:26;97082.84;;;7.68;100.00
73151;BME280;61354;50.758;6.106;2023-04-01T02:55:51;97089.56;;;7.75;100.00
73151;BME280;61354;50.758;6.106;2023-04-01T02:58:18;97085.97;;;7.63;100.00
73151;BME280;61354;50.758;6.106;2023-04-01T03:00:44;97075.72;;;7.67;100.00
73151;BME280;61354;50.758;6.106;2023-04-01T03:03:09;97094.28;;;7.70;100.00
73151;BME280;61354;50.758;6.106;2023-04-01T03:05:35;97087.16;;;7.69;100.00
73151;BME280;61354;50.758;6.106;2023-04-01T03:08:02;97101.41;;;7.71;100.00
73151;BME280;61354;50.758;6.106;2023-04-01T03:10:27;97097.84;;;7.67;100.00
73151;BME280;61354;50.758;6.106;2023-04-01T03:12:53;97085.59;;;7.68;100.00
73151;BME280;61354;50.758;6.106;2023-04-01T03:15:18;97098.22;;;7.69;100.00
73151;BME280;61354;50.758;6.106;2023-04-01T03:17:44;97113.97;;;7.62;100.00
73151;BME280;61354;50.758;6.106;2023-04-01T03:20:12;97105.31;;;7.63;100.00
73151;BME280;61354;50.758;6.106;2023-04-01T03:22:38;97102.91;;;7.62;100.00
73151;BME280;61354;50.758;6.106;2023-04-01T03:25:05;97112.78;;;7.63;100.00
73151;BME280;61354;50.758;6.106;2023-04-01T03:27:33;97111.19;;;7.58;100.00
73151;BME280;61354;50.758;6.106;2023-04-01T03:29:59;97106.09;;;7.64;100.00
73151;BME280;61354;50.758;6.106;2023-04-01T03:32:25;97107.69;;;7.65;100.00
73151;BME280;61354;50.758;6.106;2023-04-01T03:34:52;97112.41;;;7.61;100.00
73151;BME280;61354;50.758;6.106;2023-04-01T03:37:18;97108.41;;;7.58;100.00
73151;BME280;61354;50.758;6.106;2023-04-01T03:39:43;97114.75;;;7.62;100.00
73151;BME280;61354;50.758;6.106;2023-04-01T03:42:09;97109.25;;;7.66;100.00
73151;BME280;61354;50.758;6.106;2023-04-01T03:44:34;97111.59;;;7.60;100.00
73151;BME280;61354;50.758;6.106;2023-04-01T03:47:00;97109.66;;;7.64;100.00
73151;BME280;61354;50.758;6.106;2023-04-01T03:49:26;97120.31;;;7.66;100.00
73151;BME280;61354;50.758;6.106;2023-04-01T03:51:52;97123.44;;;7.61;100.00
73151;BME280;61354;50.758;6.106;2023-04-01T03:54:18;97116.34;;;7.67;100.00
73151;BME280;61354;50.758;6.106;2023-04-01T03:56:45;97114.38;;;7.64;100.00
73151;BME280;61354;50.758;6.106;2023-04-01T03:59:11;97121.50;;;7.68;100.00
73151;BME280;61354;50.758;6.106;2023-04-01T04:01:37;97125.47;;;7.67;100.00
73151;BME280;61354;50.758;6.106;2023-04-01T04:04:03;97117.94;;;7.64;100.00
73151;BME280;61354;50.758;6.106;2023-04-01T04:06:29;97117.13;;;7.60;100.00
73151;BME280;61354;50.758;6.106;2023-04-01T04:08:55;97126.59;;;7.59;100.00
73151;BME280;61354;50.758;6.106;2023-04-01T04:11:21;97142.38;;;7.62;100.00
73151;BME280;61354;50.758;6.106;2023-04-01T04:13:47;97129.75;;;7.61;100.00
73151;BME280;61354;50.758;6.106;2023-04-01T04:16:16;97131.34;;;7.62;100.00
73151;BME280;61354;50.758;6.106;2023-04-01T04:18:42;97142.38;;;7.62;100.00
73151;BME280;61354;50.758;6.106;2023-04-01T04:21:12;97145.53;;;7.61;100.00
73151;BME280;61354;50.758;6.106;2023-04-01T04:23:38;97157.78;;;7.63;100.00
73151;BME280;61354;50.758;6.106;2023-04-01T04:26:06;97156.59;;;7.64;100.00
73151;BME280;61354;50.758;6.106;2023-04-01T04:28:32;97152.66;;;7.65;100.00
73151;BME280;61354;50.758;6.106;2023-04-01T04:30:58;97161.75;;;7.69;100.00
73151;BME280;61354;50.758;6.106;2023-04-01T04:33:24;97158.13;;;7.58;100.00
73151;BME280;61354;50.758;6.106;2023-04-01T04:35:51;97155.81;;;7.60;100.00
73151;BME280;61354;50.758;6.106;2023-04-01T04:38:17;97150.28;;;7.64;100.00
73151;BME280;61354;50.758;6.106;2023-04-01T04:40:43;97155.81;;;7.60;100.00
73151;BME280;61354;50.758;6.106;2023-04-01T04:43:13;97163.31;;;7.63;100.00
73151;BME280;61354;50.758;6.106;2023-04-01T04:45:40;97149.50;;;7.63;100.00
73151;BME280;61354;50.758;6.106;2023-04-01T04:48:13;97169.59;;;7.60;100.00
73151;BME280;61354;50.758;6.106;2023-04-01T04:50:44;97171.59;;;7.60;100.00
73151;BME280;61354;50.758;6.106;2023-04-01T04:53:11;97175.13;;;7.60;100.00
73151;BME280;61354;50.758;6.106;2023-04-01T04:55:37;97175.53;;;7.62;100.00
73151;BME280;61354;50.758;6.106;2023-04-01T04:58:03;97177.53;;;7.65;100.00
73151;BME280;61354;50.758;6.106;2023-04-01T05:00:28;97175.16;;;7.64;100.00
73151;BME280;61354;50.758;6.106;2023-04-01T05:02:54;97185.75;;;7.58;100.00
73151;BME280;61354;50.758;6.106;2023-04-01T05:05:20;97188.97;;;7.64;100.00
73151;BME280;61354;50.758;6.106;2023-04-01T05:07:45;97188.19;;;7.63;100.00
73151;BME280;61354;50.758;6.106;2023-04-01T05:10:11;97181.84;;;7.66;100.00
73151;BME280;61354;50.758;6.106;2023-04-01T05:12:36;97189.75;;;7.64;100.00
73151;BME280;61354;50.758;6.106;2023-04-01T05:15:05;97203.56;;;7.64;100.00
73151;BME280;61354;50.758;6.106;2023-04-01T05:17:31;97196.84;;;7.65;100.00
73151;BME280;61354;50.758;6.106;2023-04-01T05:19:57;97194.91;;;7.69;100.00
73151;BME280;61354;50.758;6.106;2023-04-01T05:22:22;97211.84;;;7.64;100.00
73151;BME280;61354;50.758;6.106;2023-04-01T05:24:48;97197.63;;;7.62;100.00
73151;BME280;61354;50.758;6.106;2023-04-01T05:27:14;97206.72;;;7.66;100.00
73151;BME280;61354;50.758;6.106;2023-04-01T05:29:40;97207.13;;;7.65;100.00
73151;BME280;61354;50.758;6.106;2023-04-01T05:32:05;97201.53;;;7.58;100.00
73151;BME280;61354;50.758;6.106;2023-04-01T05:34:31;97217.38;;;7.64;100.00
73151;BME280;61354;50.758;6.106;2023-04-01T05:36:57;97217.38;;;7.64;100.00
73151;BME280;61354;50.758;6.106;2023-04-01T05:39:22;97212.63;;;7.61;100.00
73151;BME280;61354;50.758;6.106;2023-04-01T05:41:48;97223.28;;;7.63;100.00
73151;BME280;61354;50.758;6.106;2023-04-01T05:44:14;97227.63;;;7.64;100.00
73151;BME280;61354;50.758;6.106;2023-04-01T05:46:40;97229.63;;;7.63;100.00
73151;BME280;61354;50.758;6.106;2023-04-01T05:49:06;97226.03;;;7.59;100.00
73151;BME280;61354;50.758;6.106;2023-04-01T05:51:32;97228.44;;;7.64;100.00
73151;BME280;61354;50.758;6.106;2023-04-01T05:53:57;97232.38;;;7.63;100.00
73151;BME280;61354;50.758;6.106;2023-04-01T05:56:23;97224.91;;;7.67;100.00
73151;BME280;61354;50.758;6.106;2023-04-01T05:58:52;97237.88;;;7.60;100.00
73151;BME280;61354;50.758;6.106;2023-04-01T06:01:18;97230.75;;;7.59;100.00
73151;BME280;61354;50.758;6.106;2023-04-01T06:03:44;97233.13;;;7.60;100.00
73151;BME280;61354;50.758;6.106;2023-04-01T06:06:15;97230.75;;;7.59;100.00
73151;BME280;61354;50.758;6.106;2023-04-01T06:08:41;97244.94;;;7.57;100.00
73151;BME280;61354;50.758;6.106;2023-04-01T06:11:19;97244.91;;;7.54;100.00
73151;BME280;61354;50.758;6.106;2023-04-01T06:17:12;97252.91;;;7.66;100.00
73151;BME280;61354;50.758;6.106;2023-04-01T06:20:33;97252.03;;;7.58;100.00
73151;BME280;61354;50.758;6.106;2023-04-01T06:25:58;97250.50;;;7.61;100.00
73151;BME280;61354;50.758;6.106;2023-04-01T06:28:49;97250.91;;;7.59;100.00
73151;BME280;61354;50.758;6.106;2023-04-01T06:37:36;97262.38;;;7.68;100.00
73151;BME280;61354;50.758;6.106;2023-04-01T06:40:10;97279.03;;;7.76;100.00
73151;BME280;61354;50.758;6.106;2023-04-01T06:56:27;97272.38;;;7.84;100.00
73151;BME280;61354;50.758;6.106;2023-04-01T06:59:12;97285.38;;;7.87;100.00
73151;BME280;61354;50.758;6.106;2023-04-01T07:01:53;97285.00;;;7.85;100.00
73151;BME280;61354;50.758;6.106;2023-04-01T07:04:20;97294.09;;;7.89;100.00
73151;BME280;61354;50.758;6.106;2023-04-01T07:07:12;97290.94;;;7.90;100.00
73151;BME280;61354;50.758;6.106;2023-04-01T07:09:43;97290.53;;;7.92;100.00
73151;BME280;61354;50.758;6.106;2023-04-01T07:12:44;97292.13;;;7.89;100.00
73151;BME280;61354;50.758;6.106;2023-04-01T07:15:26;97293.31;;;7.88;100.00
73151;BME280;61354;50.758;6.106;2023-04-01T07:18:15;97302.00;;;7.90;100.00
73151;BME280;61354;50.758;6.106;2023-04-01T07:20:42;97294.09;;;7.89;100.00
73151;BME280;61354;50.758;6.106;2023-04-01T07:23:31;97302.78;;;7.91;100.00
73151;BME280;61354;50.758;6.106;2023-04-01T07:26:17;97305.88;;;7.82;100.00
73151;BME280;61354;50.758;6.106;2023-04-01T07:28:44;97315.34;;;7.78;100.00
73151;BME280;61354;50.758;6.106;2023-04-01T07:37:02;97333.56;;;7.86;100.00
73151;BME280;61354;50.758;6.106;2023-04-01T07:45:35;97343.78;;;7.82;100.00
73151;BME280;61354;50.758;6.106;2023-04-01T07:48:13;97343.06;;;7.92;100.00
73151;BME280;61354;50.758;6.106;2023-04-01T08:01:50;97351.84;;;8.05;100.00
73151;BME280;61354;50.758;6.106;2023-04-01T08:04:36;97360.81;;;7.91;100.00
73151;BME280;61354;50.758;6.106;2023-04-01T08:07:14;97367.59;;;7.97;100.00
73151;BME280;61354;50.758;6.106;2023-04-01T08:09:48;97374.31;;;8.00;100.00
73151;BME280;61354;50.758;6.106;2023-04-01T08:21:06;97386.97;;;8.04;100.00
73151;BME280;61354;50.758;6.106;2023-04-01T08:23:43;97385.00;;;8.01;100.00
73151;BME280;61354;50.758;6.106;2023-04-01T08:28:59;97397.53;;;7.91;100.00
73151;BME280;61354;50.758;6.106;2023-04-01T08:33:57;97400.34;;;7.95;100.00
73151;BME280;61354;50.758;6.106;2023-04-01T08:36:34;97415.44;;;8.05;100.00
73151;BME280;61354;50.758;6.106;2023-04-01T08:52:42;97418.16;;;8.01;100.00
73151;BME280;61354;50.758;6.106;2023-04-01T08:55:37;97426.50;;;8.08;100.00
73151;BME280;61354;50.758;6.106;2023-04-01T08:58:24;97441.06;;;8.02;100.00
73151;BME280;61354;50.758;6.106;2023-04-01T09:06:47;97436.72;;;8.01;100.00
73151;BME280;61354;50.758;6.106;2023-04-01T09:09:24;97440.75;;;8.10;100.00
73151;BME280;61354;50.758;6.106;2023-04-01T09:15:04;97452.91;;;8.02;100.00
73151;BME280;61354;50.758;6.106;2023-04-01T09:25:45;97459.25;;;8.06;100.00
73151;BME280;61354;50.758;6.106;2023-04-01T09:31:12;97458.53;;;8.13;100.00
73151;BME280;61354;50.758;6.106;2023-04-01T09:36:45;97465.63;;;8.10;100.00
73151;BME280;61354;50.758;6.106;2023-04-01T09:39:31;97472.66;;;8.04;100.00
73151;BME280;61354;50.758;6.106;2023-04-01T09:44:33;97467.56;;;8.06;100.00
73151;BME280;61354;50.758;6.106;2023-04-01T09:50:17;97483.31;;;8.02;100.00
73151;BME280;61354;50.758;6.106;2023-04-01T09:53:06;97486.16;;;8.09;100.00
73151;BME280;61354;50.758;6.106;2023-04-01T10:17:21;97510.75;;;8.25;100.00
73151;BME280;61354;50.758;6.106;2023-04-01T10:23:12;97512.13;;;8.42;100.00
73151;BME280;61354;50.758;6.106;2023-04-01T10:44:35;97528.16;;;8.29;100.00
73151;BME280;61354;50.758;6.106;2023-04-01T10:58:28;97536.69;;;8.51;100.00
73151;BME280;61354;50.758;6.106;2023-04-01T11:07:01;97535.38;;;8.37;100.00
73151;BME280;61354;50.758;6.106;2023-04-01T11:20:13;97553.66;;;8.49;100.00
73151;BME280;61354;50.758;6.106;2023-04-01T11:25:55;97554.03;;;8.44;100.00
73151;BME280;61354;50.758;6.106;2023-04-01T11:29:08;97557.53;;;8.41;100.00
73151;BME280;61354;50.758;6.106;2023-04-01T11:31:58;97564.31;;;8.47;100.00
73151;BME280;61354;50.758;6.106;2023-04-01T11:45:30;97580.88;;;8.43;100.00
73151;BME280;61354;50.758;6.106;2023-04-01T11:53:47;97590.91;;;8.62;100.00
73151;BME280;61354;50.758;6.106;2023-04-01T11:56:39;97588.09;;;8.55;100.00
73151;BME280;61354;50.758;6.106;2023-04-01T12:01:48;97593.63;;;8.55;100.00
73151;BME280;61354;50.758;6.106;2023-04-01T12:09:39;97602.81;;;8.66;100.00
73151;BME280;61354;50.758;6.106;2023-04-01T12:15:05;97612.75;;;8.75;100.00
73151;BME280;61354;50.758;6.106;2023-04-01T12:17:53;97603.34;;;8.83;100.00
73151;BME280;61354;50.758;6.106;2023-04-01T12:28:18;97614.06;;;8.88;100.00
73151;BME280;61354;50.758;6.106;2023-04-01T12:33:47;97632.84;;;8.64;100.00
73151;BME280;61354;50.758;6.106;2023-04-01T12:55:45;97639.50;;;9.08;100.00
73151;BME280;61354;50.758;6.106;2023-04-01T13:11:58;97657.44;;;8.73;100.00
73151;BME280;61354;50.758;6.106;2023-04-01T13:20:19;97665.06;;;8.87;100.00
73151;BME280;61354;50.758;6.106;2023-04-01T13:28:22;97660.59;;;9.23;100.00
73151;BME280;61354;50.758;6.106;2023-04-01T13:44:48;97680.31;;;9.14;100.00
73151;BME280;61354;50.758;6.106;2023-04-01T13:58:04;97695.69;;;9.08;100.00
73151;BME280;61354;50.758;6.106;2023-04-01T14:14:46;97697.22;;;9.02;100.00
73151;BME280;61354;50.758;6.106;2023-04-01T14:17:28;97722.50;;;8.97;100.00
73151;BME280;61354;50.758;6.106;2023-04-01T14:28:28;97730.09;;;8.66;100.00
73151;BME280;61354;50.758;6.106;2023-04-01T14:41:57;97739.19;;;8.63;100.00
73151;BME280;61354;50.758;6.106;2023-04-01T14:44:45;97734.69;;;8.52;100.00
73151;BME280;61354;50.758;6.106;2023-04-01T14:49:52;97734.75;;;8.55;100.00
73151;BME280;61354;50.758;6.106;2023-04-01T14:52:31;97744.63;;;8.56;100.00
73151;BME280;61354;50.758;6.106;2023-04-01T14:54:58;97743.19;;;8.69;100.00
73151;BME280;61354;50.758;6.106;2023-04-01T15:05:32;97748.94;;;8.54;100.00
73151;BME280;61354;50.758;6.106;2023-04-01T15:08:27;97760.09;;;8.61;100.00
73151;BME280;61354;50.758;6.106;2023-04-01T15:13:53;97769.03;;;8.47;100.00
73151;BME280;61354;50.758;6.106;2023-04-01T15:24:47;97782.56;;;8.56;100.00
73151;BME280;61354;50.758;6.106;2023-04-01T15:27:32;97780.50;;;8.49;100.00
73151;BME280;61354;50.758;6.106;2023-04-01T15:38:25;97785.03;;;8.64;100.00
73151;BME280;61354;50.758;6.106;2023-04-01T15:43:48;97793.88;;;8.43;100.00
73151;BME280;61354;50.758;6.106;2023-04-01T16:02:44;97817.44;;;8.34;100.00
73151;BME280;61354;50.758;6.106;2023-04-01T16:07:55;97821.75;;;8.31;100.00
73151;BME280;61354;50.758;6.106;2023-04-01T16:15:59;97833.31;;;8.37;100.00
73151;BME280;61354;50.758;6.106;2023-04-01T16:18:34;97830.78;;;8.28;100.00
73151;BME280;61354;50.758;6.106;2023-04-01T16:21:37;97839.47;;;8.27;100.00
73151;BME280;61354;50.758;6.106;2023-04-01T16:27:44;97852.91;;;8.28;100.00
73151;BME280;61354;50.758;6.106;2023-04-01T16:30:34;97844.56;;;8.25;100.00
73151;BME280;61354;50.758;6.106;2023-04-01T16:36:05;97855.94;;;8.19;100.00
73151;BME280;61354;50.758;6.106;2023-04-01T16:38:38;97860.81;;;8.26;100.00
73151;BME280;61354;50.758;6.106;2023-04-01T16:41:34;97861.06;;;8.17;100.00
73151;BME280;61354;50.758;6.106;2023-04-01T16:46:40;97863.78;;;8.14;100.00
73151;BME280;61354;50.758;6.106;2023-04-01T16:51:54;97856.69;;;8.16;100.00
73151;BME280;61354;50.758;6.106;2023-04-01T17:04:47;97888.72;;;8.17;100.00
73151;BME280;61354;50.758;6.106;2023-04-01T17:23:50;97906.78;;;8.11;100.00
73151;BME280;61354;50.758;6.106;2023-04-01T17:29:22;97914.88;;;7.97;100.00
73151;BME280;61354;50.758;6.106;2023-04-01T17:35:16;97926.91;;;7.85;100.00
73151;BME280;61354;50.758;6.106;2023-04-01T17:41:24;97933.56;;;7.81;100.00
73151;BME280;61354;50.758;6.106;2023-04-01T17:46:38;97932.91;;;7.91;100.00
73151;BME280;61354;50.758;6.106;2023-04-01T17:49:25;97945.41;;;7.81;100.00
73151;BME280;61354;50.758;6.106;2023-04-01T17:52:19;97949.34;;;7.80;100.00
73151;BME280;61354;50.758;6.106;2023-04-01T17:54:56;97945.78;;;7.80;100.00
73151;BME280;61354;50.758;6.106;2023-04-01T17:59:57;97949.63;;;7.75;100.00
73151;BME280;61354;50.758;6.106;2023-04-01T18:05:22;97955.66;;;7.81;100.00
73151;BME280;61354;50.758;6.106;2023-04-01T18:10:25;97954.41;;;7.78;100.00
73151;BME280;61354;50.758;6.106;2023-04-01T18:21:48;97982.09;;;7.59;100.00
73151;BME280;61354;50.758;6.106;2023-04-01T18:24:30;97994.84;;;7.63;100.00
73151;BME280;61354;50.758;6.106;2023-04-01T18:35:02;98003.31;;;7.55;100.00
73151;BME280;61354;50.758;6.106;2023-04-01T18:40:34;98008.13;;;7.58;100.00
73151;BME280;61354;50.758;6.106;2023-04-01T18:45:50;98017.38;;;7.46;100.00
73151;BME280;61354;50.758;6.106;2023-04-01T18:51:49;98020.28;;;7.34;100.00
73151;BME280;61354;50.758;6.106;2023-04-01T18:56:47;98030.59;;;7.37;100.00
73151;BME280;61354;50.758;6.106;2023-04-01T18:59:55;98036.44;;;7.51;100.00
73151;BME280;61354;50.758;6.106;2023-04-01T19:02:38;98042.66;;;7.48;100.00
73151;BME280;61354;50.758;6.106;2023-04-01T19:05:13;98044.56;;;7.44;100.00
73151;BME280;61354;50.758;6.106;2023-04-01T19:10:16;98041.78;;;7.44;100.00
73151;BME280;61354;50.758;6.106;2023-04-01T19:21:47;98060.56;;;7.35;100.00
73151;BME280;61354;50.758;6.106;2023-04-01T19:30:38;98056.75;;;7.23;100.00
73151;BME280;61354;50.758;6.106;2023-04-01T19:38:39;98068.97;;;7.22;100.00
73151;BME280;61354;50.758;6.106;2023-04-01T19:44:22;98073.03;;;7.29;100.00
73151;BME280;61354;50.758;6.106;2023-04-01T19:46:56;98071.38;;;7.24;100.00
73151;BME280;61354;50.758;6.106;2023-04-01T19:49:38;98080.09;;;7.26;100.00
73151;BME280;61354;50.758;6.106;2023-04-01T19:57:47;98079.44;;;7.33;100.00
73151;BME280;61354;50.758;6.106;2023-04-01T20:13:40;98089.31;;;7.34;100.00
73151;BME280;61354;50.758;6.106;2023-04-01T20:16:12;98094.50;;;7.35;100.00
73151;BME280;61354;50.758;6.106;2023-04-01T20:18:55;98096.00;;;7.33;100.00
73151;BME280;61354;50.758;6.106;2023-04-01T20:21:36;98099.44;;;7.26;100.00
73151;BME280;61354;50.758;6.106;2023-04-01T20:26:45;98115.63;;;7.28;100.00
73151;BME280;61354;50.758;6.106;2023-04-01T20:40:46;98118.81;;;7.30;100.00
73151;BME280;61354;50.758;6.106;2023-04-01T20:43:40;98125.28;;;7.37;100.00
73151;BME280;61354;50.758;6.106;2023-04-01T20:49:45;98133.06;;;7.32;100.00
73151;BME280;61354;50.758;6.106;2023-04-01T21:03:12;98132.44;;;7.38;100.00
73151;BME280;61354;50.758;6.106;2023-04-01T21:06:25;98130.91;;;7.41;100.00
73151;BME280;61354;50.758;6.106;2023-04-01T21:11:43;98144.13;;;7.32;100.00
73151;BME280;61354;50.758;6.106;2023-04-01T21:22:43;98152.81;;;7.34;100.00
73151;BME280;61354;50.758;6.106;2023-04-01T21:25:30;98154.44;;;7.35;100.00
73151;BME280;61354;50.758;6.106;2023-04-01T21:45:09;98192.78;;;7.56;100.00
73151;BME280;61354;50.758;6.106;2023-04-01T21:48:15;98192.88;;;7.59;100.00
73151;BME280;61354;50.758;6.106;2023-04-01T21:50:55;98199.28;;;7.63;100.00
73151;BME280;61354;50.758;6.106;2023-04-01T22:06:55;98222.41;;;7.75;100.00
73151;BME280;61354;50.758;6.106;2023-04-01T22:09:35;98224.03;;;7.76;100.00
73151;BME280;61354;50.758;6.106;2023-04-01T22:17:38;98233.16;;;7.60;100.00
73151;BME280;61354;50.758;6.106;2023-04-01T22:25:26;98246.69;;;7.65;100.00
73151;BME280;61354;50.758;6.106;2023-04-01T22:27:58;98254.16;;;7.65;100.00
73151;BME280;61354;50.758;6.106;2023-04-01T22:33:07;98251.41;;;7.65;100.00
73151;BME280;61354;50.758;6.106;2023-04-01T22:38:28;98262.38;;;7.61;100.00
73151;BME280;61354;50.758;6.106;2023-04-01T22:41:09;98263.16;;;7.62;100.00
73151;BME280;61354;50.758;6.106;2023-04-01T22:43:42;98274.50;;;7.57;100.00
73151;BME280;61354;50.758;6.106;2023-04-01T22:51:47;98283.25;;;7.43;100.00
73151;BME280;61354;50.758;6.106;2023-04-01T22:54:32;98292.25;;;7.40;100.00
73151;BME280;61354;50.758;6.106;2023-04-01T22:57:05;98293.94;;;7.29;100.00
73151;BME280;61354;50.758;6.106;2023-04-01T23:00:05;98296.44;;;7.34;100.00
73151;BME280;61354;50.758;6.106;2023-04-01T23:03:06;98305.53;;;7.34;100.00
73151;BME280;61354;50.758;6.106;2023-04-01T23:05:37;98310.50;;;7.29;100.00
73151;BME280;61354;50.758;6.106;2023-04-01T23:11:18;98322.25;;;7.26;100.00
73151;BME280;61354;50.758;6.106;2023-04-01T23:17:09;98333.31;;;7.26;100.00
73151;BME280;61354;50.758;6.106;2023-04-01T23:27:50;98351.38;;;7.07;100.00
73151;BME280;61354;50.758;6.106;2023-04-01T23:35:54;98362.00;;;7.05;100.00
73151;BME280;61354;50.758;6.106;2023-04-01T23:38:23;98365.72;;;6.97;100.00
73151;BME280;61354;50.758;6.106;2023-04-01T23:40:51;98372.81;;;6.98;100.00
73151;BME280;61354;50.758;6.106;2023-04-01T23:43:30;98375.13;;;6.96;100.00
73151;BME280;61354;50.758;6.106;2023-04-01T23:45:58;98391.69;;;6.96;100.00
73151;BME280;61354;50.758;6.106;2023-04-01T23:48:45;98385.31;;;6.80;100.00
73151;BME280;61354;50.758;6.106;2023-04-01T23:51:27;98395.44;;;6.76;100.00
73151;BME280;61354;50.758;6.106;2023-04-01T23:54:01;98399.94;;;6.80;100.00
73151;BME280;61354;50.758;6.106;2023-04-01T23:56:48;98398.88;;;6.85;100.00
73151;BME280;61354;50.758;6.106;2023-04-01T23:59:32;98409.13;;;6.84;100.00
